sensor_id;sensor_type;location;lat;lon;timestamp;pressure;altitude;pressure_sealevel;temperature;humidity
43161;BME280;40968;52.342;5.528;2023-02-21T00:02:40;102009.50;;;8.09;84.62
43161;BME280;40968;52.342;5.528;2023-02-21T00:05:24;101977.44;;;7.90;84.67
43161;BME280;40968;52.342;5.528;2023-02-21T00:08:09;101964.59;;;7.79;84.49
43161;BME280;40968;52.342;5.528;2023-02-21T00:10:53;102019.16;;;8.12;84.59
43161;BME280;40968;52.342;5.528;2023-02-21T00:13:38;101992.09;;;8.01;84.81
43161;BME280;40968;52.342;5.528;2023-02-21T00:16:23;101989.50;;;7.99;84.74
43161;BME280;40968;52.342;5.528;2023-02-21T00:19:07;102004.97;;;8.11;84.81
43161;BME280;40968;52.342;5.528;2023-02-21T00:21:51;102009.44;;;8.11;84.73
43161;BME280;40968;52.342;5.528;2023-02-21T00:24:35;101956.56;;;7.79;84.77
43161;BME280;40968;52.342;5.528;2023-02-21T00:27:20;101961.69;;;7.84;84.68
43161;BME280;40968;52.342;5.528;2023-02-21T00:30:07;101910.75;;;7.49;84.79
43161;BME280;40968;52.342;5.528;2023-02-21T00:32:51;102012.16;;;8.09;84.88
43161;BME280;40968;52.342;5.528;2023-02-21T00:35:35;101982.78;;;7.90;84.85
43161;BME280;40968;52.342;5.528;2023-02-21T00:38:19;101993.81;;;8.02;84.80
43161;BME280;40968;52.342;5.528;2023-02-21T00:41:04;102008.63;;;8.09;84.94
43161;BME280;40968;52.342;5.528;2023-02-21T00:43:48;102007.72;;;8.10;85.04
43161;BME280;40968;52.342;5.528;2023-02-21T00:46:33;101997.97;;;8.09;84.82
43161;BME280;40968;52.342;5.528;2023-02-21T00:49:18;101987.91;;;7.95;84.89
43161;BME280;40968;52.342;5.528;2023-02-21T00:52:02;101986.03;;;7.97;85.01
43161;BME280;40968;52.342;5.528;2023-02-21T00:54:46;102004.22;;;8.08;85.12
43161;BME280;40968;52.342;5.528;2023-02-21T00:57:30;101977.19;;;7.96;85.04
43161;BME280;40968;52.342;5.528;2023-02-21T01:00:16;101975.44;;;7.95;84.96
43161;BME280;40968;52.342;5.528;2023-02-21T01:03:02;101918.34;;;7.58;85.06
43161;BME280;40968;52.342;5.528;2023-02-21T01:05:46;101990.09;;;8.06;85.06
43161;BME280;40968;52.342;5.528;2023-02-21T01:08:30;102001.63;;;8.06;85.25
43161;BME280;40968;52.342;5.528;2023-02-21T01:11:15;101960.69;;;7.87;85.39
43161;BME280;40968;52.342;5.528;2023-02-21T01:14:00;101986.78;;;8.01;85.32
43161;BME280;40968;52.342;5.528;2023-02-21T01:16:44;101989.13;;;8.07;85.25
43161;BME280;40968;52.342;5.528;2023-02-21T01:19:29;101983.81;;;8.07;85.37
43161;BME280;40968;52.342;5.528;2023-02-21T01:22:14;101972.38;;;7.84;85.21
43161;BME280;40968;52.342;5.528;2023-02-21T01:24:58;101985.44;;;7.90;85.28
43161;BME280;40968;52.342;5.528;2023-02-21T01:27:42;101994.72;;;8.02;85.45
43161;BME280;40968;52.342;5.528;2023-02-21T01:30:27;101974.78;;;7.90;85.39
43161;BME280;40968;52.342;5.528;2023-02-21T01:33:11;101991.16;;;8.02;85.57
43161;BME280;40968;52.342;5.528;2023-02-21T01:35:56;101956.34;;;7.84;85.59
43161;BME280;40968;52.342;5.528;2023-02-21T01:38:41;101962.09;;;7.95;85.54
43161;BME280;40968;52.342;5.528;2023-02-21T01:41:25;101916.34;;;7.63;85.80
43161;BME280;40968;52.342;5.528;2023-02-21T01:44:28;101950.00;;;7.87;85.81
43161;BME280;40968;52.342;5.528;2023-02-21T01:47:14;101956.09;;;7.90;85.78
43161;BME280;40968;52.342;5.528;2023-02-21T01:49:59;101873.75;;;7.41;85.72
43161;BME280;40968;52.342;5.528;2023-02-21T01:52:46;101966.34;;;8.00;86.08
43161;BME280;40968;52.342;5.528;2023-02-21T01:55:32;101928.16;;;7.78;86.07
43161;BME280;40968;52.342;5.528;2023-02-21T01:58:20;101934.41;;;7.77;85.92
43161;BME280;40968;52.342;5.528;2023-02-21T02:01:06;101979.69;;;8.00;86.12
43161;BME280;40968;52.342;5.528;2023-02-21T02:03:51;101964.59;;;7.99;85.91
43161;BME280;40968;52.342;5.528;2023-02-21T02:06:35;101969.94;;;7.99;86.11
43161;BME280;40968;52.342;5.528;2023-02-21T02:09:21;101961.00;;;8.00;86.04
43161;BME280;40968;52.342;5.528;2023-02-21T02:12:21;101914.25;;;7.70;86.01
43161;BME280;40968;52.342;5.528;2023-02-21T02:15:17;101858.72;;;7.40;85.94
43161;BME280;40968;52.342;5.528;2023-02-21T02:20:54;101839.72;;;7.27;86.00
43161;BME280;40968;52.342;5.528;2023-02-21T02:23:37;101956.41;;;8.03;86.22
43161;BME280;40968;52.342;5.528;2023-02-21T02:29:24;101941.66;;;7.94;86.04
43161;BME280;40968;52.342;5.528;2023-02-21T02:32:18;101939.91;;;7.93;85.91
43161;BME280;40968;52.342;5.528;2023-02-21T02:34:54;101885.41;;;7.59;85.89
43161;BME280;40968;52.342;5.528;2023-02-21T02:37:30;101958.84;;;8.08;86.08
43161;BME280;40968;52.342;5.528;2023-02-21T02:40:02;101954.44;;;8.07;86.06
43161;BME280;40968;52.342;5.528;2023-02-21T02:42:39;101934.56;;;7.93;85.94
43161;BME280;40968;52.342;5.528;2023-02-21T02:45:13;101849.41;;;7.49;85.84
43161;BME280;40968;52.342;5.528;2023-02-21T02:47:44;101883.97;;;7.71;85.94
43161;BME280;40968;52.342;5.528;2023-02-21T02:50:13;101872.88;;;7.61;86.01
43161;BME280;40968;52.342;5.528;2023-02-21T02:52:49;101817.16;;;7.35;85.89
43161;BME280;40968;52.342;5.528;2023-02-21T02:55:23;101953.38;;;8.11;85.97
43161;BME280;40968;52.342;5.528;2023-02-21T02:57:51;101852.72;;;7.54;85.93
43161;BME280;40968;52.342;5.528;2023-02-21T03:00:19;101953.38;;;8.11;86.04
43161;BME280;40968;52.342;5.528;2023-02-21T03:02:52;101899.56;;;7.80;86.04
43161;BME280;40968;52.342;5.528;2023-02-21T03:08:24;101895.13;;;7.81;85.68
43161;BME280;40968;52.342;5.528;2023-02-21T03:10:57;101941.72;;;8.12;86.12
43161;BME280;40968;52.342;5.528;2023-02-21T03:13:34;101942.69;;;8.11;85.92
43161;BME280;40968;52.342;5.528;2023-02-21T03:16:07;101937.34;;;8.11;85.94
43161;BME280;40968;52.342;5.528;2023-02-21T03:18:41;101940.97;;;8.10;86.04
43161;BME280;40968;52.342;5.528;2023-02-21T03:21:12;101910.06;;;7.85;85.93
43161;BME280;40968;52.342;5.528;2023-02-21T03:23:41;101938.28;;;8.10;86.12
43161;BME280;40968;52.342;5.528;2023-02-21T03:26:11;101943.63;;;8.10;86.18
43161;BME280;40968;52.342;5.528;2023-02-21T03:28:40;101939.22;;;8.09;85.97
43161;BME280;40968;52.342;5.528;2023-02-21T03:31:07;101937.34;;;8.11;86.16
43161;BME280;40968;52.342;5.528;2023-02-21T03:33:36;101889.03;;;7.77;86.01
43161;BME280;40968;52.342;5.528;2023-02-21T03:36:04;101934.97;;;8.05;86.37
43161;BME280;40968;52.342;5.528;2023-02-21T03:38:33;101933.72;;;8.12;86.33
43161;BME280;40968;52.342;5.528;2023-02-21T03:41:00;101934.59;;;8.12;86.12
43161;BME280;40968;52.342;5.528;2023-02-21T03:43:27;101859.13;;;7.71;86.09
43161;BME280;40968;52.342;5.528;2023-02-21T03:45:53;101907.75;;;7.96;86.09
43161;BME280;40968;52.342;5.528;2023-02-21T03:48:20;101880.69;;;7.85;85.93
43161;BME280;40968;52.342;5.528;2023-02-21T03:50:46;101924.94;;;8.10;86.30
43161;BME280;40968;52.342;5.528;2023-02-21T03:53:13;101937.19;;;8.14;86.10
43161;BME280;40968;52.342;5.528;2023-02-21T03:55:41;101931.88;;;8.14;86.18
43161;BME280;40968;52.342;5.528;2023-02-21T03:58:08;101930.03;;;8.14;86.04
43161;BME280;40968;52.342;5.528;2023-02-21T04:00:34;101907.59;;;8.00;85.97
43161;BME280;40968;52.342;5.528;2023-02-21T04:03:01;101845.38;;;7.59;85.88
43161;BME280;40968;52.342;5.528;2023-02-21T04:05:28;101935.25;;;8.18;86.13
43161;BME280;40968;52.342;5.528;2023-02-21T04:07:54;101938.88;;;8.17;86.08
43161;BME280;40968;52.342;5.528;2023-02-21T04:10:21;101937.06;;;8.17;86.19
43161;BME280;40968;52.342;5.528;2023-02-21T04:12:49;101932.59;;;8.18;86.12
43161;BME280;40968;52.342;5.528;2023-02-21T04:15:16;101908.69;;;7.95;86.09
43161;BME280;40968;52.342;5.528;2023-02-21T04:17:42;101941.47;;;8.18;85.99
43161;BME280;40968;52.342;5.528;2023-02-21T04:20:09;101942.28;;;8.20;86.19
43161;BME280;40968;52.342;5.528;2023-02-21T04:22:36;101952.06;;;8.20;86.24
43161;BME280;40968;52.342;5.528;2023-02-21T04:25:05;101945.72;;;8.22;86.04
43161;BME280;40968;52.342;5.528;2023-02-21T04:27:31;101952.78;;;8.23;86.12
43161;BME280;40968;52.342;5.528;2023-02-21T04:30:00;101931.22;;;8.09;85.92
43161;BME280;40968;52.342;5.528;2023-02-21T04:32:27;101916.47;;;8.00;85.81
43161;BME280;40968;52.342;5.528;2023-02-21T04:34:53;101950.94;;;8.25;85.81
43161;BME280;40968;52.342;5.528;2023-02-21T04:37:20;101908.25;;;8.05;85.99
43161;BME280;40968;52.342;5.528;2023-02-21T04:39:47;101944.69;;;8.25;85.86
43161;BME280;40968;52.342;5.528;2023-02-21T04:42:13;101904.09;;;7.99;85.98
43161;BME280;40968;52.342;5.528;2023-02-21T04:44:40;101902.13;;;8.03;85.82
43161;BME280;40968;52.342;5.528;2023-02-21T04:47:08;101948.19;;;8.27;86.01
43161;BME280;40968;52.342;5.528;2023-02-21T04:49:34;101934.59;;;8.12;85.86
43161;BME280;40968;52.342;5.528;2023-02-21T04:52:01;101897.09;;;7.96;85.84
43161;BME280;40968;52.342;5.528;2023-02-21T04:54:28;101888.28;;;7.94;85.73
43161;BME280;40968;52.342;5.528;2023-02-21T04:56:54;101877.09;;;7.86;85.72
43161;BME280;40968;52.342;5.528;2023-02-21T04:59:21;101946.28;;;8.29;85.92
43161;BME280;40968;52.342;5.528;2023-02-21T05:01:47;101956.13;;;8.28;85.91
43161;BME280;40968;52.342;5.528;2023-02-21T05:04:15;101893.59;;;7.94;85.72
43161;BME280;40968;52.342;5.528;2023-02-21T05:06:42;101944.13;;;8.18;85.88
43161;BME280;40968;52.342;5.528;2023-02-21T05:09:09;101924.94;;;8.10;85.72
43161;BME280;40968;52.342;5.528;2023-02-21T05:11:35;101953.53;;;8.27;85.90
43161;BME280;40968;52.342;5.528;2023-02-21T05:14:02;101914.38;;;8.07;85.79
43161;BME280;40968;52.342;5.528;2023-02-21T05:16:29;101905.88;;;7.99;85.87
43161;BME280;40968;52.342;5.528;2023-02-21T05:18:55;101951.72;;;8.27;85.97
43161;BME280;40968;52.342;5.528;2023-02-21T05:21:23;101923.19;;;8.09;85.98
43161;BME280;40968;52.342;5.528;2023-02-21T05:23:50;101938.78;;;8.18;85.95
43161;BME280;40968;52.342;5.528;2023-02-21T05:26:25;101919.59;;;8.10;85.89
43161;BME280;40968;52.342;5.528;2023-02-21T05:28:52;101887.53;;;7.91;85.68
43161;BME280;40968;52.342;5.528;2023-02-21T05:31:19;101956.84;;;8.32;85.84
43161;BME280;40968;52.342;5.528;2023-02-21T05:33:46;101959.53;;;8.32;85.74
43161;BME280;40968;52.342;5.528;2023-02-21T05:36:12;101909.19;;;8.04;85.66
43161;BME280;40968;52.342;5.528;2023-02-21T05:38:48;101919.72;;;8.07;86.01
43161;BME280;40968;52.342;5.528;2023-02-21T05:41:15;101698.69;;;6.82;85.35
43161;BME280;40968;52.342;5.528;2023-02-21T05:43:43;101949.78;;;8.31;85.94
43161;BME280;40968;52.342;5.528;2023-02-21T05:46:20;101896.13;;;7.97;85.82
43161;BME280;40968;52.342;5.528;2023-02-21T05:48:47;101817.41;;;7.49;85.79
43161;BME280;40968;52.342;5.528;2023-02-21T05:51:14;101950.78;;;8.28;86.04
43161;BME280;40968;52.342;5.528;2023-02-21T05:53:41;101904.00;;;8.01;85.74
43161;BME280;40968;52.342;5.528;2023-02-21T05:56:09;101947.19;;;8.29;85.82
43161;BME280;40968;52.342;5.528;2023-02-21T05:58:36;101956.03;;;8.30;85.95
43161;BME280;40968;52.342;5.528;2023-02-21T06:01:03;101881.91;;;7.78;86.07
43161;BME280;40968;52.342;5.528;2023-02-21T06:03:29;101905.13;;;7.95;85.92
43161;BME280;40968;52.342;5.528;2023-02-21T06:05:57;101901.53;;;7.96;86.09
43161;BME280;40968;52.342;5.528;2023-02-21T06:08:24;101954.31;;;8.29;86.01
43161;BME280;40968;52.342;5.528;2023-02-21T06:10:50;101931.72;;;8.17;85.91
43161;BME280;40968;52.342;5.528;2023-02-21T06:13:18;101809.38;;;7.49;85.85
43161;BME280;40968;52.342;5.528;2023-02-21T06:15:45;101945.44;;;8.28;85.92
43161;BME280;40968;52.342;5.528;2023-02-21T06:18:12;101928.19;;;8.17;85.85
43161;BME280;40968;52.342;5.528;2023-02-21T06:20:39;101876.28;;;7.84;85.87
43161;BME280;40968;52.342;5.528;2023-02-21T06:23:06;101924.78;;;8.13;85.88
43161;BME280;40968;52.342;5.528;2023-02-21T06:25:33;101938.50;;;8.24;86.00
43161;BME280;40968;52.342;5.528;2023-02-21T06:27:59;101947.25;;;8.28;85.88
43161;BME280;40968;52.342;5.528;2023-02-21T06:30:27;101951.63;;;8.29;86.02
43161;BME280;40968;52.342;5.528;2023-02-21T06:32:54;101950.78;;;8.28;86.07
43161;BME280;40968;52.342;5.528;2023-02-21T06:35:20;101949.03;;;8.27;86.04
43161;BME280;40968;52.342;5.528;2023-02-21T06:37:47;101954.38;;;8.27;85.82
43161;BME280;40968;52.342;5.528;2023-02-21T06:40:13;101963.31;;;8.26;86.13
43161;BME280;40968;52.342;5.528;2023-02-21T06:42:40;101955.38;;;8.25;86.09
43161;BME280;40968;52.342;5.528;2023-02-21T06:45:07;101958.94;;;8.25;86.10
43161;BME280;40968;52.342;5.528;2023-02-21T06:47:35;101907.88;;;7.93;86.14
43161;BME280;40968;52.342;5.528;2023-02-21T06:50:02;101961.66;;;8.24;86.20
43161;BME280;40968;52.342;5.528;2023-02-21T06:52:29;101930.28;;;8.10;86.35
43161;BME280;40968;52.342;5.528;2023-02-21T06:54:56;101886.38;;;7.77;86.32
43161;BME280;40968;52.342;5.528;2023-02-21T06:57:23;101951.94;;;8.23;86.36
43161;BME280;40968;52.342;5.528;2023-02-21T06:59:49;101945.72;;;8.22;86.25
43161;BME280;40968;52.342;5.528;2023-02-21T07:02:18;101901.69;;;7.93;86.24
43161;BME280;40968;52.342;5.528;2023-02-21T07:04:46;101951.06;;;8.22;86.40
43161;BME280;40968;52.342;5.528;2023-02-21T07:07:13;101956.41;;;8.22;86.30
43161;BME280;40968;52.342;5.528;2023-02-21T07:09:40;101952.78;;;8.23;86.34
43161;BME280;40968;52.342;5.528;2023-02-21T07:12:06;101945.72;;;8.22;86.30
43161;BME280;40968;52.342;5.528;2023-02-21T07:14:34;101895.63;;;7.89;86.31
43161;BME280;40968;52.342;5.528;2023-02-21T07:17:00;101947.44;;;8.23;86.54
43161;BME280;40968;52.342;5.528;2023-02-21T07:19:27;101919.88;;;8.04;86.44
43161;BME280;40968;52.342;5.528;2023-02-21T07:21:55;101922.53;;;8.04;86.54
43161;BME280;40968;52.342;5.528;2023-02-21T07:24:22;101923.34;;;8.06;86.31
43161;BME280;40968;52.342;5.528;2023-02-21T07:26:48;101950.13;;;8.23;86.43
43161;BME280;40968;52.342;5.528;2023-02-21T07:29:15;101959.88;;;8.24;86.55
43161;BME280;40968;52.342;5.528;2023-02-21T07:31:42;101873.38;;;7.70;86.65
43161;BME280;40968;52.342;5.528;2023-02-21T07:34:09;101913.38;;;7.90;86.67
43161;BME280;40968;52.342;5.528;2023-02-21T07:36:37;101966.34;;;8.19;86.65
43161;BME280;40968;52.342;5.528;2023-02-21T07:39:05;101960.44;;;8.12;86.71
43161;BME280;40968;52.342;5.528;2023-02-21T07:41:32;101918.84;;;7.87;86.74
43161;BME280;40968;52.342;5.528;2023-02-21T07:43:58;101971.66;;;8.20;86.78
43161;BME280;40968;52.342;5.528;2023-02-21T07:46:26;101972.56;;;8.19;86.84
43161;BME280;40968;52.342;5.528;2023-02-21T07:48:53;101970.69;;;8.21;86.87
43161;BME280;40968;52.342;5.528;2023-02-21T07:51:20;101977.75;;;8.22;86.91
43161;BME280;40968;52.342;5.528;2023-02-21T07:53:47;101669.47;;;6.39;86.70
43161;BME280;40968;52.342;5.528;2023-02-21T07:56:14;101933.31;;;8.02;86.93
43161;BME280;40968;52.342;5.528;2023-02-21T07:58:41;101948.03;;;8.11;87.23
43161;BME280;40968;52.342;5.528;2023-02-21T08:01:08;101933.22;;;8.04;87.31
43161;BME280;40968;52.342;5.528;2023-02-21T08:03:34;101970.84;;;8.18;87.21
43161;BME280;40968;52.342;5.528;2023-02-21T08:06:02;101947.38;;;8.06;87.12
43161;BME280;40968;52.342;5.528;2023-02-21T08:08:29;101953.50;;;8.08;87.24
43161;BME280;40968;52.342;5.528;2023-02-21T08:10:55;101903.25;;;7.78;87.37
43161;BME280;40968;52.342;5.528;2023-02-21T08:13:23;101947.31;;;8.07;87.37
43161;BME280;40968;52.342;5.528;2023-02-21T08:15:50;101975.09;;;8.22;87.51
43161;BME280;40968;52.342;5.528;2023-02-21T08:18:19;101932.38;;;8.03;87.38
43161;BME280;40968;52.342;5.528;2023-02-21T08:20:48;101832.75;;;7.44;87.44
43161;BME280;40968;52.342;5.528;2023-02-21T08:23:15;101934.06;;;8.04;87.43
43161;BME280;40968;52.342;5.528;2023-02-21T08:25:42;101968.66;;;8.26;87.65
43161;BME280;40968;52.342;5.528;2023-02-21T08:28:09;101941.72;;;8.12;87.62
43161;BME280;40968;52.342;5.528;2023-02-21T08:30:37;101876.72;;;7.75;87.61
43161;BME280;40968;52.342;5.528;2023-02-21T08:33:04;101956.97;;;8.29;87.53
43161;BME280;40968;52.342;5.528;2023-02-21T08:35:31;101971.13;;;8.31;87.54
43161;BME280;40968;52.342;5.528;2023-02-21T08:37:57;101937.97;;;8.16;87.56
43161;BME280;40968;52.342;5.528;2023-02-21T08:40:28;101924.13;;;8.08;87.22
43161;BME280;40968;52.342;5.528;2023-02-21T08:42:55;101938.78;;;8.18;87.41
43161;BME280;40968;52.342;5.528;2023-02-21T08:45:24;101917.28;;;8.02;87.42
43161;BME280;40968;52.342;5.528;2023-02-21T08:47:53;101967.53;;;8.32;87.52
43161;BME280;40968;52.342;5.528;2023-02-21T08:50:21;101963.97;;;8.32;87.41
43161;BME280;40968;52.342;5.528;2023-02-21T08:52:49;101964.78;;;8.34;87.43
43161;BME280;40968;52.342;5.528;2023-02-21T08:55:16;101826.94;;;7.55;87.17
43161;BME280;40968;52.342;5.528;2023-02-21T08:57:44;101923.69;;;8.17;87.20
43161;BME280;40968;52.342;5.528;2023-02-21T09:00:13;101942.75;;;8.28;87.09
43161;BME280;40968;52.342;5.528;2023-02-21T09:02:40;101924.50;;;8.19;87.21
43161;BME280;40968;52.342;5.528;2023-02-21T09:05:10;101960.88;;;8.41;87.00
43161;BME280;40968;52.342;5.528;2023-02-21T09:07:37;101955.47;;;8.42;86.78
43161;BME280;40968;52.342;5.528;2023-02-21T09:10:05;101790.28;;;7.39;86.70
43161;BME280;40968;52.342;5.528;2023-02-21T09:12:34;101905.16;;;8.14;86.74
43161;BME280;40968;52.342;5.528;2023-02-21T09:15:00;101807.03;;;7.62;86.59
43161;BME280;40968;52.342;5.528;2023-02-21T09:17:27;101905.94;;;8.16;86.52
43161;BME280;40968;52.342;5.528;2023-02-21T09:19:58;101955.13;;;8.50;86.33
43161;BME280;40968;52.342;5.528;2023-02-21T09:22:26;101916.22;;;8.25;85.73
43161;BME280;40968;52.342;5.528;2023-02-21T09:24:52;101856.16;;;7.96;86.16
43161;BME280;40968;52.342;5.528;2023-02-21T09:27:19;101861.72;;;8.10;86.16
43161;BME280;40968;52.342;5.528;2023-02-21T09:30:01;101901.78;;;8.29;86.03
43161;BME280;40968;52.342;5.528;2023-02-21T09:32:28;101940.34;;;8.62;85.84
43161;BME280;40968;52.342;5.528;2023-02-21T09:34:54;101941.03;;;8.66;86.00
43161;BME280;40968;52.342;5.528;2023-02-21T09:37:21;101940.00;;;8.68;85.83
43161;BME280;40968;52.342;5.528;2023-02-21T09:39:49;101943.56;;;8.69;85.83
43161;BME280;40968;52.342;5.528;2023-02-21T09:42:16;101904.34;;;8.50;85.61
43161;BME280;40968;52.342;5.528;2023-02-21T09:44:44;101930.97;;;8.71;85.35
43161;BME280;40968;52.342;5.528;2023-02-21T09:47:16;101933.56;;;8.72;85.49
43161;BME280;40968;52.342;5.528;2023-02-21T09:49:45;101838.47;;;8.12;85.51
43161;BME280;40968;52.342;5.528;2023-02-21T09:52:18;101943.25;;;8.75;85.06
43161;BME280;40968;52.342;5.528;2023-02-21T09:54:52;101885.81;;;8.47;85.09
43161;BME280;40968;52.342;5.528;2023-02-21T09:57:20;101857.28;;;8.28;84.90
43161;BME280;40968;52.342;5.528;2023-02-21T09:59:47;101910.34;;;8.55;85.02
43161;BME280;40968;52.342;5.528;2023-02-21T10:02:29;101887.69;;;8.45;85.01
43161;BME280;40968;52.342;5.528;2023-02-21T10:05:05;101878.38;;;8.35;84.99
43161;BME280;40968;52.342;5.528;2023-02-21T10:07:38;101868.78;;;8.30;85.00
43161;BME280;40968;52.342;5.528;2023-02-21T10:10:15;101852.88;;;8.27;84.88
43161;BME280;40968;52.342;5.528;2023-02-21T10:12:46;101944.84;;;8.79;85.10
43161;BME280;40968;52.342;5.528;2023-02-21T10:18:21;101937.59;;;8.81;84.73
43161;BME280;40968;52.342;5.528;2023-02-21T10:20:52;101942.94;;;8.81;84.76
43161;BME280;40968;52.342;5.528;2023-02-21T10:23:22;101942.94;;;8.81;84.85
43161;BME280;40968;52.342;5.528;2023-02-21T10:25:54;101880.59;;;8.44;84.65
43161;BME280;40968;52.342;5.528;2023-02-21T10:28:24;101941.09;;;8.83;84.67
43161;BME280;40968;52.342;5.528;2023-02-21T10:30:53;101946.44;;;8.83;84.51
43161;BME280;40968;52.342;5.528;2023-02-21T10:33:22;101894.47;;;8.52;84.69
43161;BME280;40968;52.342;5.528;2023-02-21T10:35:49;101754.16;;;7.70;84.47
43161;BME280;40968;52.342;5.528;2023-02-21T10:38:22;101918.72;;;8.67;84.55
43161;BME280;40968;52.342;5.528;2023-02-21T10:40:52;101881.03;;;8.54;84.44
43161;BME280;40968;52.342;5.528;2023-02-21T10:43:22;101943.28;;;8.92;84.47
43161;BME280;40968;52.342;5.528;2023-02-21T10:45:56;101945.72;;;8.97;84.40
43161;BME280;40968;52.342;5.528;2023-02-21T10:48:26;101950.13;;;8.98;84.18
43161;BME280;40968;52.342;5.528;2023-02-21T10:51:05;101956.34;;;8.99;84.10
43161;BME280;40968;52.342;5.528;2023-02-21T10:53:34;101928.81;;;8.79;83.82
43161;BME280;40968;52.342;5.528;2023-02-21T10:56:08;101942.91;;;9.00;84.15
43161;BME280;40968;52.342;5.528;2023-02-21T10:58:43;101954.47;;;9.01;83.98
43161;BME280;40968;52.342;5.528;2023-02-21T11:01:12;101951.78;;;9.01;84.14
43161;BME280;40968;52.342;5.528;2023-02-21T11:03:45;101868.84;;;8.48;83.97
43161;BME280;40968;52.342;5.528;2023-02-21T11:06:22;101943.13;;;8.95;83.89
43161;BME280;40968;52.342;5.528;2023-02-21T11:08:49;101895.75;;;8.62;83.79
43161;BME280;40968;52.342;5.528;2023-02-21T11:11:30;101822.72;;;8.25;83.90
43161;BME280;40968;52.342;5.528;2023-02-21T11:14:05;101966.75;;;9.05;83.91
43161;BME280;40968;52.342;5.528;2023-02-21T11:16:32;101956.97;;;9.04;83.95
43161;BME280;40968;52.342;5.528;2023-02-21T11:19:03;101957.78;;;9.06;83.90
43161;BME280;40968;52.342;5.528;2023-02-21T11:21:31;101948.81;;;9.07;83.81
43161;BME280;40968;52.342;5.528;2023-02-21T11:24:00;101950.69;;;9.05;83.67
43161;BME280;40968;52.342;5.528;2023-02-21T11:26:30;101893.56;;;8.71;83.64
43161;BME280;40968;52.342;5.528;2023-02-21T11:29:07;101944.56;;;9.03;83.86
43161;BME280;40968;52.342;5.528;2023-02-21T11:31:35;101886.72;;;8.65;84.03
43161;BME280;40968;52.342;5.528;2023-02-21T11:34:04;101923.00;;;8.88;84.01
43161;BME280;40968;52.342;5.528;2023-02-21T11:36:33;101905.81;;;8.75;84.08
43161;BME280;40968;52.342;5.528;2023-02-21T11:39:05;101935.59;;;9.04;84.37
43161;BME280;40968;52.342;5.528;2023-02-21T11:41:38;101927.00;;;8.97;84.35
43161;BME280;40968;52.342;5.528;2023-02-21T11:44:28;101916.41;;;8.95;84.52
43161;BME280;40968;52.342;5.528;2023-02-21T11:47:03;101886.03;;;8.79;84.27
43161;BME280;40968;52.342;5.528;2023-02-21T11:49:37;101934.34;;;9.11;84.38
43161;BME280;40968;52.342;5.528;2023-02-21T11:52:11;101906.50;;;8.98;84.46
43161;BME280;40968;52.342;5.528;2023-02-21T11:54:39;101729.84;;;7.95;84.40
43161;BME280;40968;52.342;5.528;2023-02-21T11:57:11;101920.72;;;9.16;84.45
43161;BME280;40968;52.342;5.528;2023-02-21T11:59:45;101757.38;;;8.15;84.22
43161;BME280;40968;52.342;5.528;2023-02-21T12:02:30;101923.34;;;9.17;84.30
43161;BME280;40968;52.342;5.528;2023-02-21T12:05:13;101836.13;;;8.62;84.25
43161;BME280;40968;52.342;5.528;2023-02-21T12:07:49;101903.44;;;9.05;84.28
43161;BME280;40968;52.342;5.528;2023-02-21T12:10:32;101860.25;;;8.78;84.17
43161;BME280;40968;52.342;5.528;2023-02-21T12:13:09;101884.63;;;8.89;84.28
43161;BME280;40968;52.342;5.528;2023-02-21T12:15:48;101843.78;;;8.68;84.56
43161;BME280;40968;52.342;5.528;2023-02-21T12:18:31;101881.47;;;8.99;84.58
43161;BME280;40968;52.342;5.528;2023-02-21T12:21:16;101845.88;;;8.81;84.50
43161;BME280;40968;52.342;5.528;2023-02-21T12:23:52;101917.66;;;9.23;84.50
43161;BME280;40968;52.342;5.528;2023-02-21T12:26:31;101844.84;;;8.83;84.27
43161;BME280;40968;52.342;5.528;2023-02-21T12:29:15;101903.59;;;9.20;84.45
43161;BME280;40968;52.342;5.528;2023-02-21T12:31:55;101913.91;;;9.27;84.49
43161;BME280;40968;52.342;5.528;2023-02-21T12:34:36;101894.56;;;9.22;84.62
43161;BME280;40968;52.342;5.528;2023-02-21T12:37:16;101859.00;;;9.03;84.47
43161;BME280;40968;52.342;5.528;2023-02-21T12:39:57;101850.97;;;9.03;84.35
43161;BME280;40968;52.342;5.528;2023-02-21T12:42:39;101865.56;;;9.13;84.22
43161;BME280;40968;52.342;5.528;2023-02-21T12:45:22;101895.88;;;9.31;84.51
43161;BME280;40968;52.342;5.528;2023-02-21T12:47:57;101894.06;;;9.32;84.44
43161;BME280;40968;52.342;5.528;2023-02-21T12:50:29;101844.91;;;8.99;84.51
43161;BME280;40968;52.342;5.528;2023-02-21T12:53:00;101855.69;;;9.15;84.50
43161;BME280;40968;52.342;5.528;2023-02-21T12:55:30;101898.31;;;9.36;84.55
43161;BME280;40968;52.342;5.528;2023-02-21T12:58:02;101848.13;;;9.06;84.48
43161;BME280;40968;52.342;5.528;2023-02-21T13:00:34;101865.44;;;9.16;84.45
43161;BME280;40968;52.342;5.528;2023-02-21T13:03:08;101892.88;;;9.37;84.51
43161;BME280;40968;52.342;5.528;2023-02-21T13:05:44;101862.75;;;9.16;84.66
43161;BME280;40968;52.342;5.528;2023-02-21T13:08:15;101862.69;;;9.18;84.53
43161;BME280;40968;52.342;5.528;2023-02-21T13:10:50;101832.41;;;9.00;84.90
43161;BME280;40968;52.342;5.528;2023-02-21T13:13:20;101886.97;;;9.31;84.95
43161;BME280;40968;52.342;5.528;2023-02-21T13:15:50;101888.72;;;9.32;84.94
43161;BME280;40968;52.342;5.528;2023-02-21T13:18:22;101845.28;;;9.09;85.16
43161;BME280;40968;52.342;5.528;2023-02-21T13:20:53;101882.56;;;9.29;84.99
43161;BME280;40968;52.342;5.528;2023-02-21T13:26:51;101876.47;;;9.27;85.33
43161;BME280;40968;52.342;5.528;2023-02-21T13:29:24;101874.63;;;9.28;85.46
43161;BME280;40968;52.342;5.528;2023-02-21T13:31:58;101841.69;;;9.10;85.49
43161;BME280;40968;52.342;5.528;2023-02-21T13:34:28;101866.59;;;9.28;85.31
43161;BME280;40968;52.342;5.528;2023-02-21T13:36:59;101820.78;;;9.01;85.50
43161;BME280;40968;52.342;5.528;2023-02-21T13:39:28;101817.16;;;9.02;85.61
43161;BME280;40968;52.342;5.528;2023-02-21T13:42:03;101856.09;;;9.25;85.61
43161;BME280;40968;52.342;5.528;2023-02-21T13:44:32;101808.50;;;8.96;85.64